sensor_id;sensor_type;location;lat;lon;timestamp;pressure;altitude;pressure_sealevel;temperature;humidity
69909;BME280;57190;47.918;8.112;2023-08-24T00:00:45;91298.75;;;18.42;75.03
69909;BME280;57190;47.918;8.112;2023-08-24T00:03:11;91300.63;;;18.55;74.44
69909;BME280;57190;47.918;8.112;2023-08-24T00:05:37;91300.00;;;18.58;73.65
69909;BME280;57190;47.918;8.112;2023-08-24T00:08:04;91301.25;;;18.75;73.12
69909;BME280;57190;47.918;8.112;2023-08-24T00:10:30;91296.28;;;18.91;71.94
69909;BME280;57190;47.918;8.112;2023-08-24T00:12:55;91301.41;;;18.92;71.22
69909;BME280;57190;47.918;8.112;2023-08-24T00:15:21;91293.75;;;18.72;72.18
69909;BME280;57190;47.918;8.112;2023-08-24T00:17:46;91291.53;;;18.51;72.67
69909;BME280;57190;47.918;8.112;2023-08-24T00:20:12;91279.72;;;18.47;72.75
69909;BME280;57190;47.918;8.112;2023-08-24T00:22:40;91274.03;;;18.48;72.67
69909;BME280;57190;47.918;8.112;2023-08-24T00:25:07;91278.00;;;18.51;72.57
69909;BME280;57190;47.918;8.112;2023-08-24T00:27:33;91278.94;;;18.46;73.16
69909;BME280;57190;47.918;8.112;2023-08-24T00:29:59;91279.72;;;18.47;72.92
69909;BME280;57190;47.918;8.112;2023-08-24T00:32:25;91275.63;;;18.49;72.93
69909;BME280;57190;47.918;8.112;2023-08-24T00:34:51;91276.59;;;18.53;72.41
69909;BME280;57190;47.918;8.112;2023-08-24T00:37:16;91277.94;;;18.42;73.30
69909;BME280;57190;47.918;8.112;2023-08-24T00:39:42;91267.78;;;18.25;73.76
69909;BME280;57190;47.918;8.112;2023-08-24T00:42:07;91275.91;;;18.11;73.84
69909;BME280;57190;47.918;8.112;2023-08-24T00:44:33;91274.94;;;18.07;73.80
69909;BME280;57190;47.918;8.112;2023-08-24T00:46:59;91261.69;;;18.19;73.70
69909;BME280;57190;47.918;8.112;2023-08-24T00:49:25;91256.47;;;18.23;73.24
69909;BME280;57190;47.918;8.112;2023-08-24T00:51:52;91261.78;;;18.28;73.04
69909;BME280;57190;47.918;8.112;2023-08-24T00:54:18;91262.47;;;18.34;72.86
69909;BME280;57190;47.918;8.112;2023-08-24T00:56:44;91256.63;;;18.41;72.36
69909;BME280;57190;47.918;8.112;2023-08-24T00:59:10;91257.81;;;18.48;71.81
69909;BME280;57190;47.918;8.112;2023-08-24T01:01:35;91251.78;;;18.51;71.29
69909;BME280;57190;47.918;8.112;2023-08-24T01:04:01;91253.69;;;18.51;71.33
69909;BME280;57190;47.918;8.112;2023-08-24T01:06:27;91248.13;;;18.47;71.32
69909;BME280;57190;47.918;8.112;2023-08-24T01:08:53;91249.63;;;18.39;71.34
69909;BME280;57190;47.918;8.112;2023-08-24T01:11:29;91250.25;;;18.36;71.86
69909;BME280;57190;47.918;8.112;2023-08-24T01:14:05;91252.16;;;18.36;72.17
69909;BME280;57190;47.918;8.112;2023-08-24T01:16:33;91247.66;;;18.31;72.57
69909;BME280;57190;47.918;8.112;2023-08-24T01:19:04;91240.66;;;18.30;72.98
69909;BME280;57190;47.918;8.112;2023-08-24T01:21:32;91243.34;;;18.30;72.69
69909;BME280;57190;47.918;8.112;2023-08-24T01:24:08;91243.66;;;18.29;72.67
69909;BME280;57190;47.918;8.112;2023-08-24T01:26:36;91244.16;;;18.31;73.03
69909;BME280;57190;47.918;8.112;2023-08-24T01:29:04;91243.25;;;18.35;72.65
69909;BME280;57190;47.918;8.112;2023-08-24T01:31:31;91238.03;;;18.39;72.25
69909;BME280;57190;47.918;8.112;2023-08-24T01:33:56;91232.81;;;18.43;72.48
69909;BME280;57190;47.918;8.112;2023-08-24T01:36:22;91228.28;;;18.29;72.12
69909;BME280;57190;47.918;8.112;2023-08-24T01:38:56;91219.59;;;18.18;72.33
69909;BME280;57190;47.918;8.112;2023-08-24T01:41:30;91211.44;;;18.10;72.34
69909;BME280;57190;47.918;8.112;2023-08-24T01:44:02;91214.53;;;18.03;72.46
69909;BME280;57190;47.918;8.112;2023-08-24T01:46:29;91212.34;;;18.05;72.43
69909;BME280;57190;47.918;8.112;2023-08-24T01:48:57;91206.94;;;18.05;72.60
69909;BME280;57190;47.918;8.112;2023-08-24T01:51:24;91209.66;;;18.05;72.62
69909;BME280;57190;47.918;8.112;2023-08-24T01:53:50;91203.75;;;18.03;73.69
69909;BME280;57190;47.918;8.112;2023-08-24T01:56:16;91205.94;;;18.01;74.04
69909;BME280;57190;47.918;8.112;2023-08-24T01:58:42;91194.16;;;17.97;74.47
69909;BME280;57190;47.918;8.112;2023-08-24T02:01:08;91190.38;;;17.98;74.67
69909;BME280;57190;47.918;8.112;2023-08-24T02:03:35;91188.97;;;18.00;74.73
69909;BME280;57190;47.918;8.112;2023-08-24T02:06:01;91184.84;;;18.03;74.65
69909;BME280;57190;47.918;8.112;2023-08-24T02:08:27;91184.75;;;18.08;74.86
69909;BME280;57190;47.918;8.112;2023-08-24T02:10:52;91187.75;;;18.06;74.79
69909;BME280;57190;47.918;8.112;2023-08-24T02:13:18;91187.19;;;17.96;74.86
69909;BME280;57190;47.918;8.112;2023-08-24T02:15:44;91192.66;;;17.90;74.85
69909;BME280;57190;47.918;8.112;2023-08-24T02:18:09;91184.38;;;17.87;74.90
69909;BME280;57190;47.918;8.112;2023-08-24T02:20:36;91183.47;;;17.91;74.83
69909;BME280;57190;47.918;8.112;2023-08-24T02:23:03;91182.47;;;18.01;74.48
69909;BME280;57190;47.918;8.112;2023-08-24T02:25:28;91179.81;;;18.10;74.64
69909;BME280;57190;47.918;8.112;2023-08-24T02:27:54;91178.81;;;18.20;74.09
69909;BME280;57190;47.918;8.112;2023-08-24T02:30:20;91180.09;;;18.22;74.33
69909;BME280;57190;47.918;8.112;2023-08-24T02:32:45;91170.91;;;18.23;74.24
69909;BME280;57190;47.918;8.112;2023-08-24T02:35:11;91175.13;;;18.16;74.58
69909;BME280;57190;47.918;8.112;2023-08-24T02:37:36;91175.75;;;18.13;74.66
69909;BME280;57190;47.918;8.112;2023-08-24T02:40:02;91179.91;;;18.19;74.55
69909;BME280;57190;47.918;8.112;2023-08-24T02:42:30;91174.88;;;18.26;74.52
69909;BME280;57190;47.918;8.112;2023-08-24T02:44:57;91164.94;;;18.35;74.27
69909;BME280;57190;47.918;8.112;2023-08-24T02:47:22;91165.19;;;18.48;74.61
69909;BME280;57190;47.918;8.112;2023-08-24T02:49:48;91161.63;;;18.38;74.56
69909;BME280;57190;47.918;8.112;2023-08-24T02:52:13;91161.97;;;18.23;74.70
69909;BME280;57190;47.918;8.112;2023-08-24T02:54:38;91165.59;;;18.18;75.24
69909;BME280;57190;47.918;8.112;2023-08-24T02:57:04;91157.41;;;18.23;75.46
69909;BME280;57190;47.918;8.112;2023-08-24T02:59:30;91151.88;;;18.29;75.49
69909;BME280;57190;47.918;8.112;2023-08-24T03:01:56;91155.06;;;18.31;75.10
69909;BME280;57190;47.918;8.112;2023-08-24T03:04:21;91158.72;;;18.35;75.08
69909;BME280;57190;47.918;8.112;2023-08-24T03:06:47;91151.03;;;18.42;74.82
69909;BME280;57190;47.918;8.112;2023-08-24T03:09:12;91140.00;;;18.38;75.12
69909;BME280;57190;47.918;8.112;2023-08-24T03:11:38;91145.38;;;18.30;75.54
69909;BME280;57190;47.918;8.112;2023-08-24T03:14:04;91143.91;;;18.23;75.40
69909;BME280;57190;47.918;8.112;2023-08-24T03:16:29;91137.63;;;18.14;75.82
69909;BME280;57190;47.918;8.112;2023-08-24T03:18:55;91142.84;;;18.11;75.56
69909;BME280;57190;47.918;8.112;2023-08-24T03:21:20;91140.44;;;18.09;76.03
69909;BME280;57190;47.918;8.112;2023-08-24T03:23:46;91139.59;;;18.00;76.71
69909;BME280;57190;47.918;8.112;2023-08-24T03:26:12;91131.00;;;17.98;76.75
69909;BME280;57190;47.918;8.112;2023-08-24T03:28:37;91134.66;;;18.02;77.15
69909;BME280;57190;47.918;8.112;2023-08-24T03:31:03;91123.28;;;18.05;77.61
69909;BME280;57190;47.918;8.112;2023-08-24T03:33:28;91131.44;;;18.14;77.20
69909;BME280;57190;47.918;8.112;2023-08-24T03:35:54;91125.97;;;18.05;77.15
69909;BME280;57190;47.918;8.112;2023-08-24T03:38:20;91119.41;;;17.97;77.48
69909;BME280;57190;47.918;8.112;2023-08-24T03:40:45;91113.91;;;17.88;77.38
69909;BME280;57190;47.918;8.112;2023-08-24T03:43:11;91115.56;;;17.75;77.35
69909;BME280;57190;47.918;8.112;2023-08-24T03:45:36;91115.50;;;17.67;77.55
69909;BME280;57190;47.918;8.112;2023-08-24T03:48:02;91122.38;;;17.59;77.15
69909;BME280;57190;47.918;8.112;2023-08-24T03:50:28;91119.38;;;17.60;77.02
69909;BME280;57190;47.918;8.112;2023-08-24T03:52:54;91123.81;;;17.56;78.00
69909;BME280;57190;47.918;8.112;2023-08-24T03:55:21;91122.16;;;17.69;77.91
69909;BME280;57190;47.918;8.112;2023-08-24T03:57:47;91126.69;;;17.60;77.65
69909;BME280;57190;47.918;8.112;2023-08-24T04:00:12;91124.09;;;17.55;77.94
69909;BME280;57190;47.918;8.112;2023-08-24T04:02:40;91121.69;;;17.53;78.13
69909;BME280;57190;47.918;8.112;2023-08-24T04:05:06;91116.63;;;17.52;78.15
69909;BME280;57190;47.918;8.112;2023-08-24T04:07:32;91109.13;;;17.49;78.07
69909;BME280;57190;47.918;8.112;2023-08-24T04:10:02;91112.63;;;17.49;77.87
69909;BME280;57190;47.918;8.112;2023-08-24T04:12:30;91117.13;;;17.54;78.14
69909;BME280;57190;47.918;8.112;2023-08-24T04:14:56;91113.97;;;17.60;78.03
69909;BME280;57190;47.918;8.112;2023-08-24T04:17:23;91117.19;;;17.63;78.01
69909;BME280;57190;47.918;8.112;2023-08-24T04:19:48;91122.91;;;17.61;78.09
69909;BME280;57190;47.918;8.112;2023-08-24T04:22:14;91124.50;;;17.62;78.08
69909;BME280;57190;47.918;8.112;2023-08-24T04:24:39;91131.75;;;17.62;78.02
69909;BME280;57190;47.918;8.112;2023-08-24T04:27:05;91124.59;;;17.57;78.31
69909;BME280;57190;47.918;8.112;2023-08-24T04:29:31;91116.91;;;17.50;78.27
69909;BME280;57190;47.918;8.112;2023-08-24T04:31:57;91112.19;;;17.56;78.55
69909;BME280;57190;47.918;8.112;2023-08-24T04:34:22;91117.78;;;17.59;78.28
69909;BME280;57190;47.918;8.112;2023-08-24T04:36:48;91114.28;;;17.59;78.17
69909;BME280;57190;47.918;8.112;2023-08-24T04:39:14;91117.69;;;17.65;77.92
69909;BME280;57190;47.918;8.112;2023-08-24T04:41:39;91118.06;;;17.72;77.71
69909;BME280;57190;47.918;8.112;2023-08-24T04:44:04;91114.44;;;17.76;77.60
69909;BME280;57190;47.918;8.112;2023-08-24T04:46:31;91118.75;;;17.78;77.66
69909;BME280;57190;47.918;8.112;2023-08-24T04:48:57;91114.78;;;17.75;77.61
69909;BME280;57190;47.918;8.112;2023-08-24T04:51:22;91114.88;;;17.70;77.63
69909;BME280;57190;47.918;8.112;2023-08-24T04:53:48;91107.88;;;17.69;77.73
69909;BME280;57190;47.918;8.112;2023-08-24T04:56:13;91108.25;;;17.76;77.61
69909;BME280;57190;47.918;8.112;2023-08-24T04:58:40;91108.31;;;17.99;77.06
69909;BME280;57190;47.918;8.112;2023-08-24T05:01:05;91112.84;;;18.12;76.96
69909;BME280;57190;47.918;8.112;2023-08-24T05:03:30;91100.53;;;18.20;77.01
69909;BME280;57190;47.918;8.112;2023-08-24T05:05:56;91110.25;;;18.30;76.74
69909;BME280;57190;47.918;8.112;2023-08-24T05:15:09;91102.53;;;18.68;76.11
69909;BME280;57190;47.918;8.112;2023-08-24T05:17:35;91104.34;;;18.82;75.98
69909;BME280;57190;47.918;8.112;2023-08-24T05:20:00;91098.81;;;18.87;75.84
69909;BME280;57190;47.918;8.112;2023-08-24T05:22:25;91100.88;;;18.90;75.92
69909;BME280;57190;47.918;8.112;2023-08-24T05:24:51;91101.44;;;19.01;75.92
69909;BME280;57190;47.918;8.112;2023-08-24T05:27:16;91102.56;;;19.09;75.75
69909;BME280;57190;47.918;8.112;2023-08-24T05:29:43;91109.91;;;19.17;75.34
69909;BME280;57190;47.918;8.112;2023-08-24T05:32:08;91100.53;;;19.23;75.94
69909;BME280;57190;47.918;8.112;2023-08-24T05:34:34;91111.50;;;19.18;76.03
69909;BME280;57190;47.918;8.112;2023-08-24T05:36:59;91104.16;;;19.10;77.50
69909;BME280;57190;47.918;8.112;2023-08-24T05:39:25;91104.44;;;18.99;77.77
69909;BME280;57190;47.918;8.112;2023-08-24T05:45:11;91106.47;;;18.94;79.02
69909;BME280;57190;47.918;8.112;2023-08-24T05:47:37;91106.38;;;18.99;79.18
69909;BME280;57190;47.918;8.112;2023-08-24T05:50:03;91106.53;;;19.03;79.06
69909;BME280;57190;47.918;8.112;2023-08-24T05:52:28;91103.19;;;19.06;79.13
69909;BME280;57190;47.918;8.112;2023-08-24T05:54:54;91103.34;;;19.00;79.11
69909;BME280;57190;47.918;8.112;2023-08-24T05:57:19;91106.84;;;19.01;79.01
69909;BME280;57190;47.918;8.112;2023-08-24T05:59:45;91101.44;;;19.01;79.16
69909;BME280;57190;47.918;8.112;2023-08-24T06:02:10;91105.09;;;18.96;79.58
69909;BME280;57190;47.918;8.112;2023-08-24T06:04:36;91103.16;;;18.97;79.24
69909;BME280;57190;47.918;8.112;2023-08-24T06:07:01;91104.94;;;19.01;79.51
69909;BME280;57190;47.918;8.112;2023-08-24T06:09:30;91100.34;;;19.11;79.78
69909;BME280;57190;47.918;8.112;2023-08-24T06:11:55;91109.28;;;19.20;79.28
69909;BME280;57190;47.918;8.112;2023-08-24T06:14:21;91102.47;;;19.23;79.24
69909;BME280;57190;47.918;8.112;2023-08-24T06:16:46;91108.03;;;19.26;79.35
69909;BME280;57190;47.918;8.112;2023-08-24T06:19:13;91098.19;;;19.30;79.40
69909;BME280;57190;47.918;8.112;2023-08-24T06:21:39;91099.47;;;19.33;79.68
69909;BME280;57190;47.918;8.112;2023-08-24T06:24:05;91105.53;;;19.39;79.31
69909;BME280;57190;47.918;8.112;2023-08-24T06:26:30;91099.16;;;19.43;79.65
69909;BME280;57190;47.918;8.112;2023-08-24T06:28:56;91098.38;;;19.43;79.86
69909;BME280;57190;47.918;8.112;2023-08-24T06:31:21;91104.44;;;19.48;79.57
69909;BME280;57190;47.918;8.112;2023-08-24T06:33:48;91107.28;;;19.52;80.34
69909;BME280;57190;47.918;8.112;2023-08-24T06:36:14;91108.91;;;19.53;79.67
69909;BME280;57190;47.918;8.112;2023-08-24T06:38:39;91109.22;;;19.60;80.12
69909;BME280;57190;47.918;8.112;2023-08-24T06:41:05;91107.66;;;19.68;79.92
69909;BME280;57190;47.918;8.112;2023-08-24T06:43:31;91110.69;;;19.75;79.88
69909;BME280;57190;47.918;8.112;2023-08-24T06:45:56;91112.78;;;19.87;80.45
69909;BME280;57190;47.918;8.112;2023-08-24T06:48:22;91112.63;;;20.01;80.83
69909;BME280;57190;47.918;8.112;2023-08-24T06:50:48;91114.53;;;20.18;80.85
69909;BME280;57190;47.918;8.112;2023-08-24T06:53:13;91114.50;;;20.45;79.71
69909;BME280;57190;47.918;8.112;2023-08-24T06:55:40;91109.03;;;20.71;78.21
69909;BME280;57190;47.918;8.112;2023-08-24T06:58:05;91113.28;;;20.98;77.67
69909;BME280;57190;47.918;8.112;2023-08-24T07:00:32;91112.25;;;21.20;78.00
69909;BME280;57190;47.918;8.112;2023-08-24T07:02:58;91111.53;;;21.32;77.99
69909;BME280;57190;47.918;8.112;2023-08-24T07:05:24;91110.75;;;21.32;77.91
69909;BME280;57190;47.918;8.112;2023-08-24T07:07:50;91098.44;;;21.34;78.13
69909;BME280;57190;47.918;8.112;2023-08-24T07:10:16;91098.63;;;21.29;77.30
69909;BME280;57190;47.918;8.112;2023-08-24T07:12:41;91095.31;;;21.24;77.40
69909;BME280;57190;47.918;8.112;2023-08-24T07:15:08;91092.59;;;21.24;76.27
69909;BME280;57190;47.918;8.112;2023-08-24T07:17:33;91092.41;;;21.29;73.95
69909;BME280;57190;47.918;8.112;2023-08-24T07:19:59;91093.94;;;21.39;72.93
69909;BME280;57190;47.918;8.112;2023-08-24T07:22:24;91083.50;;;21.49;71.88
69909;BME280;57190;47.918;8.112;2023-08-24T07:24:52;91086.69;;;21.60;70.49
69909;BME280;57190;47.918;8.112;2023-08-24T07:27:18;91088.94;;;21.79;70.52
69909;BME280;57190;47.918;8.112;2023-08-24T07:29:44;91091.06;;;21.95;69.57
69909;BME280;57190;47.918;8.112;2023-08-24T07:32:09;91093.00;;;22.16;69.34
69909;BME280;57190;47.918;8.112;2023-08-24T07:34:35;91087.84;;;22.35;67.52
69909;BME280;57190;47.918;8.112;2023-08-24T07:37:01;91092.38;;;22.52;66.35
69909;BME280;57190;47.918;8.112;2023-08-24T07:39:26;91092.63;;;22.72;64.77
69909;BME280;57190;47.918;8.112;2023-08-24T07:41:52;91096.19;;;22.85;64.46
69909;BME280;57190;47.918;8.112;2023-08-24T07:44:17;91091.56;;;22.98;64.49
69909;BME280;57190;47.918;8.112;2023-08-24T07:46:43;91088.88;;;23.10;64.46
69909;BME280;57190;47.918;8.112;2023-08-24T07:49:08;91093.91;;;23.20;64.62
69909;BME280;57190;47.918;8.112;2023-08-24T07:51:34;91097.16;;;23.26;64.25
69909;BME280;57190;47.918;8.112;2023-08-24T07:54:00;91093.13;;;23.32;63.44
69909;BME280;57190;47.918;8.112;2023-08-24T07:56:25;91101.16;;;23.41;63.38
69909;BME280;57190;47.918;8.112;2023-08-24T07:58:51;91093.22;;;23.48;63.64
69909;BME280;57190;47.918;8.112;2023-08-24T08:01:16;91090.38;;;23.57;62.06
69909;BME280;57190;47.918;8.112;2023-08-24T08:03:42;91089.22;;;23.70;61.56
69909;BME280;57190;47.918;8.112;2023-08-24T08:06:07;91088.31;;;23.79;62.06
69909;BME280;57190;47.918;8.112;2023-08-24T08:08:33;91089.00;;;24.00;60.57
69909;BME280;57190;47.918;8.112;2023-08-24T08:11:02;91093.56;;;24.25;61.52
69909;BME280;57190;47.918;8.112;2023-08-24T08:13:28;91089.34;;;24.56;60.18
69909;BME280;57190;47.918;8.112;2023-08-24T08:16:01;91084.53;;;24.65;59.10
69909;BME280;57190;47.918;8.112;2023-08-24T08:18:28;91093.84;;;24.64;58.68
69909;BME280;57190;47.918;8.112;2023-08-24T08:20:54;91091.03;;;24.60;58.80
69909;BME280;57190;47.918;8.112;2023-08-24T08:23:20;91086.97;;;24.54;58.97
69909;BME280;57190;47.918;8.112;2023-08-24T08:25:45;91085.75;;;24.52;59.02
69909;BME280;57190;47.918;8.112;2023-08-24T08:28:11;91092.09;;;24.56;58.91
69909;BME280;57190;47.918;8.112;2023-08-24T08:30:36;91092.34;;;24.79;58.51
69909;BME280;57190;47.918;8.112;2023-08-24T08:33:02;91087.38;;;24.97;57.77
69909;BME280;57190;47.918;8.112;2023-08-24T08:35:27;91087.97;;;25.06;56.74
69909;BME280;57190;47.918;8.112;2023-08-24T08:37:53;91090.63;;;25.19;56.75
69909;BME280;57190;47.918;8.112;2023-08-24T08:40:19;91087.13;;;25.34;56.52
69909;BME280;57190;47.918;8.112;2023-08-24T08:42:44;91082.75;;;25.46;56.99
69909;BME280;57190;47.918;8.112;2023-08-24T08:45:10;91081.41;;;25.55;56.32
69909;BME280;57190;47.918;8.112;2023-08-24T08:47:37;91072.94;;;25.61;55.83
69909;BME280;57190;47.918;8.112;2023-08-24T08:50:03;91074.28;;;25.67;55.65
69909;BME280;57190;47.918;8.112;2023-08-24T08:52:29;91081.13;;;25.77;55.64
69909;BME280;57190;47.918;8.112;2023-08-24T08:54:55;91077.84;;;25.71;54.98
69909;BME280;57190;47.918;8.112;2023-08-24T08:57:22;91077.16;;;25.74;54.97
69909;BME280;57190;47.918;8.112;2023-08-24T08:59:52;91079.69;;;25.83;54.90
69909;BME280;57190;47.918;8.112;2023-08-24T09:02:19;91086.25;;;25.98;54.60
69909;BME280;57190;47.918;8.112;2023-08-24T09:04:45;91077.97;;;26.10;54.31
69909;BME280;57190;47.918;8.112;2023-08-24T09:07:16;91074.81;;;26.08;54.25
69909;BME280;57190;47.918;8.112;2023-08-24T09:09:42;91070.38;;;26.03;54.48
69909;BME280;57190;47.918;8.112;2023-08-24T09:12:08;91073.97;;;26.24;53.90
69909;BME280;57190;47.918;8.112;2023-08-24T09:14:34;91079.22;;;26.52;54.57
69909;BME280;57190;47.918;8.112;2023-08-24T09:16:59;91080.56;;;26.62;53.51
69909;BME280;57190;47.918;8.112;2023-08-24T09:19:29;91077.56;;;26.67;52.95
69909;BME280;57190;47.918;8.112;2023-08-24T09:21:58;91062.94;;;26.59;53.42
69909;BME280;57190;47.918;8.112;2023-08-24T09:24:31;91061.38;;;26.78;53.36
69909;BME280;57190;47.918;8.112;2023-08-24T09:27:20;91060.84;;;26.92;53.56
69909;BME280;57190;47.918;8.112;2023-08-24T09:29:52;91057.75;;;26.93;51.55
69909;BME280;57190;47.918;8.112;2023-08-24T09:32:27;91056.09;;;26.89;52.50
69909;BME280;57190;47.918;8.112;2023-08-24T09:34:54;91055.13;;;27.01;52.75
69909;BME280;57190;47.918;8.112;2023-08-24T09:37:19;91058.13;;;27.15;52.17
69909;BME280;57190;47.918;8.112;2023-08-24T09:39:46;91048.56;;;27.28;51.57
69909;BME280;57190;47.918;8.112;2023-08-24T09:42:13;91042.72;;;27.30;50.89
69909;BME280;57190;47.918;8.112;2023-08-24T09:44:43;91039.31;;;27.37;51.37
69909;BME280;57190;47.918;8.112;2023-08-24T09:47:10;91040.94;;;27.41;50.65
69909;BME280;57190;47.918;8.112;2023-08-24T09:49:38;91036.19;;;27.38;50.53
69909;BME280;57190;47.918;8.112;2023-08-24T09:52:08;91029.31;;;27.44;49.65
69909;BME280;57190;47.918;8.112;2023-08-24T09:54:38;91032.63;;;27.57;48.93
69909;BME280;57190;47.918;8.112;2023-08-24T09:57:06;91028.03;;;27.65;48.87
69909;BME280;57190;47.918;8.112;2023-08-24T09:59:35;91019.56;;;27.74;49.38
69909;BME280;57190;47.918;8.112;2023-08-24T10:02:04;91015.81;;;27.86;49.28
69909;BME280;57190;47.918;8.112;2023-08-24T10:04:36;91019.47;;;27.97;48.49
69909;BME280;57190;47.918;8.112;2023-08-24T10:07:09;91008.59;;;28.04;48.63
69909;BME280;57190;47.918;8.112;2023-08-24T10:09:47;91017.41;;;28.17;47.69
69909;BME280;57190;47.918;8.112;2023-08-24T10:12:20;91011.56;;;28.19;46.58
69909;BME280;57190;47.918;8.112;2023-08-24T10:14:59;91005.66;;;28.17;46.78
69909;BME280;57190;47.918;8.112;2023-08-24T10:17:26;91007.25;;;28.18;45.87
69909;BME280;57190;47.918;8.112;2023-08-24T10:19:54;91004.22;;;28.27;44.97
69909;BME280;57190;47.918;8.112;2023-08-24T10:22:21;90998.41;;;28.32;44.56
69909;BME280;57190;47.918;8.112;2023-08-24T10:24:47;90998.91;;;28.41;44.84
69909;BME280;57190;47.918;8.112;2023-08-24T10:27:14;91006.41;;;28.48;45.26
69909;BME280;57190;47.918;8.112;2023-08-24T10:29:40;90995.91;;;28.53;44.55
69909;BME280;57190;47.918;8.112;2023-08-24T10:32:06;90994.75;;;28.54;42.57
69909;BME280;57190;47.918;8.112;2023-08-24T10:34:32;90995.19;;;28.60;41.65
69909;BME280;57190;47.918;8.112;2023-08-24T10:37:07;90989.31;;;28.62;42.14
69909;BME280;57190;47.918;8.112;2023-08-24T10:39:34;90986.31;;;28.70;42.97
69909;BME280;57190;47.918;8.112;2023-08-24T10:42:01;90986.41;;;28.81;43.26
69909;BME280;57190;47.918;8.112;2023-08-24T10:44:38;90989.28;;;28.96;42.22
69909;BME280;57190;47.918;8.112;2023-08-24T10:47:23;90985.50;;;29.11;41.53
69909;BME280;57190;47.918;8.112;2023-08-24T10:52:25;90995.28;;;29.54;40.95
69909;BME280;57190;47.918;8.112;2023-08-24T10:54:52;90989.09;;;29.64;40.39
69909;BME280;57190;47.918;8.112;2023-08-24T10:57:19;90984.69;;;29.52;39.44
69909;BME280;57190;47.918;8.112;2023-08-24T10:59:45;90979.50;;;29.43;39.99
69909;BME280;57190;47.918;8.112;2023-08-24T11:02:19;90981.53;;;29.50;39.87
69909;BME280;57190;47.918;8.112;2023-08-24T11:05:04;90979.22;;;29.59;38.25
69909;BME280;57190;47.918;8.112;2023-08-24T11:07:29;90982.88;;;29.74;37.62
69909;BME280;57190;47.918;8.112;2023-08-24T11:09:55;90978.63;;;29.91;37.77
69909;BME280;57190;47.918;8.112;2023-08-24T11:12:21;90985.28;;;29.87;37.76
69909;BME280;57190;47.918;8.112;2023-08-24T11:14:51;90969.63;;;29.91;37.43
69909;BME280;57190;47.918;8.112;2023-08-24T11:17:20;90972.84;;;30.00;36.89
69909;BME280;57190;47.918;8.112;2023-08-24T11:19:51;90978.34;;;30.00;37.00
69909;BME280;57190;47.918;8.112;2023-08-24T11:22:17;90968.88;;;29.98;36.76
69909;BME280;57190;47.918;8.112;2023-08-24T11:24:43;90968.81;;;29.90;37.16
69909;BME280;57190;47.918;8.112;2023-08-24T11:27:09;90963.31;;;29.90;36.93
69909;BME280;57190;47.918;8.112;2023-08-24T11:29:35;90957.50;;;29.95;37.54
69909;BME280;57190;47.918;8.112;2023-08-24T11:32:01;90961.44;;;30.02;36.83
69909;BME280;57190;47.918;8.112;2023-08-24T11:34:27;90961.13;;;30.18;38.05
69909;BME280;57190;47.918;8.112;2023-08-24T11:36:53;90960.78;;;30.30;36.28
69909;BME280;57190;47.918;8.112;2023-08-24T11:39:21;90964.72;;;30.36;37.01
69909;BME280;57190;47.918;8.112;2023-08-24T11:42:04;90962.34;;;30.27;37.14
69909;BME280;57190;47.918;8.112;2023-08-24T11:44:45;90954.81;;;30.17;37.41
69909;BME280;57190;47.918;8.112;2023-08-24T11:47:14;90961.91;;;30.22;37.58
69909;BME280;57190;47.918;8.112;2023-08-24T11:49:41;90956.84;;;30.31;37.16
69909;BME280;57190;47.918;8.112;2023-08-24T11:52:06;90955.72;;;30.43;37.62
69909;BME280;57190;47.918;8.112;2023-08-24T11:54:32;90962.03;;;30.47;37.84
69909;BME280;57190;47.918;8.112;2023-08-24T11:56:58;90967.59;;;30.58;38.37
69909;BME280;57190;47.918;8.112;2023-08-24T11:59:24;90966.00;;;30.61;37.54
69909;BME280;57190;47.918;8.112;2023-08-24T12:01:51;90964.44;;;30.60;36.33
69909;BME280;57190;47.918;8.112;2023-08-24T12:04:20;90963.25;;;30.57;37.15
69909;BME280;57190;47.918;8.112;2023-08-24T12:06:46;90967.56;;;30.54;37.47
69909;BME280;57190;47.918;8.112;2023-08-24T12:09:11;90963.25;;;30.53;37.01
69909;BME280;57190;47.918;8.112;2023-08-24T12:11:37;90954.53;;;30.48;36.74
69909;BME280;57190;47.918;8.112;2023-08-24T12:14:04;90958.84;;;30.38;36.58
69909;BME280;57190;47.918;8.112;2023-08-24T12:16:32;90947.44;;;30.39;37.16
69909;BME280;57190;47.918;8.112;2023-08-24T12:18:59;90940.78;;;30.44;37.02
69909;BME280;57190;47.918;8.112;2023-08-24T12:21:28;90950.69;;;30.60;37.56
69909;BME280;57190;47.918;8.112;2023-08-24T12:23:58;90946.41;;;30.77;36.76
69909;BME280;57190;47.918;8.112;2023-08-24T12:26:26;90946.78;;;30.86;36.48
69909;BME280;57190;47.918;8.112;2023-08-24T12:28:52;90935.41;;;30.91;35.44
69909;BME280;57190;47.918;8.112;2023-08-24T12:31:18;90938.16;;;31.02;34.67
69909;BME280;57190;47.918;8.112;2023-08-24T12:33:44;90927.91;;;30.95;34.97
69909;BME280;57190;47.918;8.112;2023-08-24T12:36:10;90927.53;;;31.08;35.71
69909;BME280;57190;47.918;8.112;2023-08-24T12:38:36;90928.31;;;31.08;36.10
69909;BME280;57190;47.918;8.112;2023-08-24T12:41:02;90922.47;;;31.13;36.41
69909;BME280;57190;47.918;8.112;2023-08-24T12:43:27;90924.41;;;31.27;36.54
69909;BME280;57190;47.918;8.112;2023-08-24T12:45:53;90912.59;;;31.34;35.48
69909;BME280;57190;47.918;8.112;2023-08-24T12:48:18;90923.59;;;31.45;35.31
69909;BME280;57190;47.918;8.112;2023-08-24T12:50:44;90909.81;;;31.56;34.31
69909;BME280;57190;47.918;8.112;2023-08-24T12:53:09;90911.75;;;31.66;35.18
69909;BME280;57190;47.918;8.112;2023-08-24T12:55:38;90903.13;;;31.75;34.71
69909;BME280;57190;47.918;8.112;2023-08-24T12:58:04;90901.09;;;31.86;33.60
69909;BME280;57190;47.918;8.112;2023-08-24T13:00:29;90902.28;;;31.92;33.23
69909;BME280;57190;47.918;8.112;2023-08-24T13:02:55;90902.19;;;32.10;32.66
69909;BME280;57190;47.918;8.112;2023-08-24T13:05:21;90906.91;;;32.21;31.99
69909;BME280;57190;47.918;8.112;2023-08-24T13:07:46;90904.91;;;32.28;31.64
69909;BME280;57190;47.918;8.112;2023-08-24T13:10:12;90895.81;;;32.35;32.27